sensor_id;sensor_type;location;lat;lon;timestamp;P1;durP1;ratioP1;P2;durP2;ratioP2
39982;SDS011;25670;44.782;10.356;2023-03-23T00:00:09;1.90;;;1.70;;
39982;SDS011;25670;44.782;10.356;2023-03-23T00:02:36;5.03;;;1.90;;
39982;SDS011;25670;44.782;10.356;2023-03-23T00:05:07;5.20;;;1.98;;
39982;SDS011;25670;44.782;10.356;2023-03-23T00:07:34;3.20;;;2.42;;
39982;SDS011;25670;44.782;10.356;2023-03-23T00:10:01;2.45;;;2.20;;
39982;SDS011;25670;44.782;10.356;2023-03-23T00:12:29;2.22;;;2.10;;
39982;SDS011;25670;44.782;10.356;2023-03-23T00:15:00;2.28;;;2.10;;
39982;SDS011;25670;44.782;10.356;2023-03-23T00:20:01;3.83;;;1.98;;
39982;SDS011;25670;44.782;10.356;2023-03-23T00:22:30;2.38;;;2.22;;
39982;SDS011;25670;44.782;10.356;2023-03-23T00:25:03;1.98;;;1.65;;
39982;SDS011;25670;44.782;10.356;2023-03-23T00:27:30;2.92;;;1.92;;
39982;SDS011;25670;44.782;10.356;2023-03-23T00:29:58;2.10;;;1.90;;
39982;SDS011;25670;44.782;10.356;2023-03-23T00:32:25;2.35;;;1.65;;
39982;SDS011;25670;44.782;10.356;2023-03-23T00:34:56;3.17;;;2.22;;
39982;SDS011;25670;44.782;10.356;2023-03-23T00:37:26;2.63;;;2.05;;
39982;SDS011;25670;44.782;10.356;2023-03-23T00:39:53;2.45;;;2.25;;
39982;SDS011;25670;44.782;10.356;2023-03-23T00:42:23;4.78;;;2.10;;
39982;SDS011;25670;44.782;10.356;2023-03-23T00:44:50;4.65;;;2.42;;
39982;SDS011;25670;44.782;10.356;2023-03-23T00:47:25;2.85;;;1.98;;
39982;SDS011;25670;44.782;10.356;2023-03-23T00:49:53;2.47;;;2.25;;
39982;SDS011;25670;44.782;10.356;2023-03-23T00:52:21;1.90;;;1.80;;
39982;SDS011;25670;44.782;10.356;2023-03-23T00:54:48;2.58;;;2.38;;
39982;SDS011;25670;44.782;10.356;2023-03-23T00:57:14;2.28;;;2.17;;
39982;SDS011;25670;44.782;10.356;2023-03-23T00:59:42;3.05;;;2.28;;
39982;SDS011;25670;44.782;10.356;2023-03-23T01:02:08;4.55;;;2.25;;
39982;SDS011;25670;44.782;10.356;2023-03-23T01:04:37;2.85;;;2.08;;
39982;SDS011;25670;44.782;10.356;2023-03-23T01:07:05;3.90;;;2.60;;
39982;SDS011;25670;44.782;10.356;2023-03-23T01:09:33;4.95;;;2.10;;
39982;SDS011;25670;44.782;10.356;2023-03-23T01:12:01;2.35;;;2.13;;
39982;SDS011;25670;44.782;10.356;2023-03-23T01:14:31;2.50;;;2.30;;
39982;SDS011;25670;44.782;10.356;2023-03-23T01:16:58;3.22;;;2.35;;
39982;SDS011;25670;44.782;10.356;2023-03-23T01:19:25;2.85;;;1.80;;
39982;SDS011;25670;44.782;10.356;2023-03-23T01:21:51;6.85;;;2.47;;
39982;SDS011;25670;44.782;10.356;2023-03-23T01:24:18;2.15;;;2.05;;
39982;SDS011;25670;44.782;10.356;2023-03-23T01:26:45;2.22;;;2.03;;
39982;SDS011;25670;44.782;10.356;2023-03-23T01:29:11;5.05;;;2.38;;
39982;SDS011;25670;44.782;10.356;2023-03-23T01:31:38;2.08;;;1.95;;
39982;SDS011;25670;44.782;10.356;2023-03-23T01:34:06;2.65;;;2.13;;
39982;SDS011;25670;44.782;10.356;2023-03-23T01:36:33;2.22;;;1.92;;
39982;SDS011;25670;44.782;10.356;2023-03-23T01:39:03;2.42;;;2.22;;
39982;SDS011;25670;44.782;10.356;2023-03-23T01:41:32;3.38;;;1.95;;
39982;SDS011;25670;44.782;10.356;2023-03-23T01:46:37;2.40;;;1.95;;
39982;SDS011;25670;44.782;10.356;2023-03-23T01:49:10;5.38;;;2.05;;
39982;SDS011;25670;44.782;10.356;2023-03-23T01:51:45;4.28;;;2.38;;
39982;SDS011;25670;44.782;10.356;2023-03-23T01:54:19;2.85;;;2.65;;
39982;SDS011;25670;44.782;10.356;2023-03-23T01:57:07;2.75;;;2.40;;
39982;SDS011;25670;44.782;10.356;2023-03-23T01:59:41;3.45;;;2.40;;
39982;SDS011;25670;44.782;10.356;2023-03-23T02:02:22;2.97;;;2.78;;
39982;SDS011;25670;44.782;10.356;2023-03-23T02:07:18;2.67;;;2.47;;
39982;SDS011;25670;44.782;10.356;2023-03-23T02:09:49;2.97;;;2.17;;
39982;SDS011;25670;44.782;10.356;2023-03-23T02:12:16;2.38;;;1.77;;
39982;SDS011;25670;44.782;10.356;2023-03-23T02:14:44;1.42;;;1.33;;
39982;SDS011;25670;44.782;10.356;2023-03-23T02:25:23;1.90;;;1.80;;
39982;SDS011;25670;44.782;10.356;2023-03-23T02:36:46;2.70;;;1.98;;
39982;SDS011;25670;44.782;10.356;2023-03-23T02:39:19;1.60;;;1.50;;
39982;SDS011;25670;44.782;10.356;2023-03-23T02:42:05;4.93;;;1.73;;
39982;SDS011;25670;44.782;10.356;2023-03-23T02:44:37;4.35;;;1.83;;
39982;SDS011;25670;44.782;10.356;2023-03-23T02:47:07;1.60;;;1.45;;
39982;SDS011;25670;44.782;10.356;2023-03-23T02:49:38;1.70;;;1.52;;
39982;SDS011;25670;44.782;10.356;2023-03-23T02:52:10;2.78;;;1.70;;
39982;SDS011;25670;44.782;10.356;2023-03-23T02:54:43;1.73;;;1.63;;
39982;SDS011;25670;44.782;10.356;2023-03-23T02:57:11;2.22;;;1.40;;
39982;SDS011;25670;44.782;10.356;2023-03-23T02:59:41;1.67;;;1.48;;
39982;SDS011;25670;44.782;10.356;2023-03-23T03:02:10;2.53;;;1.70;;
39982;SDS011;25670;44.782;10.356;2023-03-23T03:04:40;2.78;;;1.40;;
39982;SDS011;25670;44.782;10.356;2023-03-23T03:09:49;2.00;;;1.50;;
39982;SDS011;25670;44.782;10.356;2023-03-23T03:12:22;3.78;;;1.63;;
39982;SDS011;25670;44.782;10.356;2023-03-23T03:17:44;1.67;;;1.55;;
39982;SDS011;25670;44.782;10.356;2023-03-23T03:20:33;3.28;;;1.63;;
39982;SDS011;25670;44.782;10.356;2023-03-23T03:23:03;1.98;;;1.15;;
39982;SDS011;25670;44.782;10.356;2023-03-23T03:25:33;5.90;;;2.47;;
39982;SDS011;25670;44.782;10.356;2023-03-23T03:28:00;2.92;;;1.48;;
39982;SDS011;25670;44.782;10.356;2023-03-23T03:30:43;2.65;;;1.45;;
39982;SDS011;25670;44.782;10.356;2023-03-23T03:33:12;3.13;;;1.45;;
39982;SDS011;25670;44.782;10.356;2023-03-23T03:35:41;3.72;;;1.52;;
39982;SDS011;25670;44.782;10.356;2023-03-23T03:38:11;4.50;;;1.83;;
39982;SDS011;25670;44.782;10.356;2023-03-23T03:40:39;2.58;;;1.20;;
39982;SDS011;25670;44.782;10.356;2023-03-23T03:43:05;1.13;;;1.02;;
39982;SDS011;25670;44.782;10.356;2023-03-23T03:45:32;2.13;;;1.60;;
39982;SDS011;25670;44.782;10.356;2023-03-23T03:47:59;5.10;;;3.97;;
39982;SDS011;25670;44.782;10.356;2023-03-23T03:50:27;8.73;;;4.35;;
39982;SDS011;25670;44.782;10.356;2023-03-23T03:52:54;12.80;;;6.22;;
39982;SDS011;25670;44.782;10.356;2023-03-23T03:55:20;9.88;;;7.75;;
39982;SDS011;25670;44.782;10.356;2023-03-23T03:57:49;8.55;;;5.53;;
39982;SDS011;25670;44.782;10.356;2023-03-23T04:00:33;4.72;;;4.10;;
39982;SDS011;25670;44.782;10.356;2023-03-23T04:03:00;4.47;;;3.35;;
39982;SDS011;25670;44.782;10.356;2023-03-23T04:05:57;4.45;;;2.78;;
39982;SDS011;25670;44.782;10.356;2023-03-23T04:08:25;3.55;;;2.80;;
39982;SDS011;25670;44.782;10.356;2023-03-23T04:10:53;4.05;;;2.55;;
39982;SDS011;25670;44.782;10.356;2023-03-23T04:13:21;6.63;;;2.15;;
39982;SDS011;25670;44.782;10.356;2023-03-23T04:16:03;4.03;;;2.15;;
39982;SDS011;25670;44.782;10.356;2023-03-23T04:18:32;2.83;;;2.20;;
39982;SDS011;25670;44.782;10.356;2023-03-23T04:20:59;4.60;;;2.40;;
39982;SDS011;25670;44.782;10.356;2023-03-23T04:23:28;5.38;;;3.80;;
39982;SDS011;25670;44.782;10.356;2023-03-23T04:26:00;6.57;;;4.57;;
39982;SDS011;25670;44.782;10.356;2023-03-23T04:28:33;5.78;;;4.25;;
39982;SDS011;25670;44.782;10.356;2023-03-23T04:31:32;11.63;;;5.05;;
39982;SDS011;25670;44.782;10.356;2023-03-23T04:34:10;16.65;;;8.10;;
39982;SDS011;25670;44.782;10.356;2023-03-23T04:36:45;10.35;;;6.28;;
39982;SDS011;25670;44.782;10.356;2023-03-23T04:39:19;13.25;;;7.10;;
39982;SDS011;25670;44.782;10.356;2023-03-23T04:41:46;22.38;;;10.50;;
39982;SDS011;25670;44.782;10.356;2023-03-23T04:44:21;19.20;;;11.38;;
39982;SDS011;25670;44.782;10.356;2023-03-23T04:47:14;27.70;;;13.75;;
39982;SDS011;25670;44.782;10.356;2023-03-23T04:49:50;27.73;;;14.00;;
39982;SDS011;25670;44.782;10.356;2023-03-23T04:52:24;26.55;;;13.25;;
39982;SDS011;25670;44.782;10.356;2023-03-23T04:54:55;31.08;;;13.95;;
39982;SDS011;25670;44.782;10.356;2023-03-23T04:57:22;25.88;;;13.70;;
39982;SDS011;25670;44.782;10.356;2023-03-23T05:00:09;29.65;;;13.27;;
39982;SDS011;25670;44.782;10.356;2023-03-23T05:02:46;25.20;;;14.10;;
39982;SDS011;25670;44.782;10.356;2023-03-23T05:05:17;25.83;;;13.50;;
39982;SDS011;25670;44.782;10.356;2023-03-23T05:07:45;26.30;;;14.10;;
39982;SDS011;25670;44.782;10.356;2023-03-23T05:10:15;31.77;;;12.82;;
39982;SDS011;25670;44.782;10.356;2023-03-23T05:12:42;25.38;;;12.77;;
39982;SDS011;25670;44.782;10.356;2023-03-23T05:15:10;27.48;;;13.55;;
39982;SDS011;25670;44.782;10.356;2023-03-23T05:17:38;21.45;;;11.90;;
39982;SDS011;25670;44.782;10.356;2023-03-23T05:20:13;23.45;;;11.75;;
39982;SDS011;25670;44.782;10.356;2023-03-23T05:22:45;21.80;;;12.80;;
39982;SDS011;25670;44.782;10.356;2023-03-23T05:25:20;17.38;;;10.70;;
39982;SDS011;25670;44.782;10.356;2023-03-23T05:27:55;16.95;;;11.70;;
39982;SDS011;25670;44.782;10.356;2023-03-23T05:30:36;22.08;;;11.40;;
39982;SDS011;25670;44.782;10.356;2023-03-23T05:33:04;21.80;;;12.85;;
39982;SDS011;25670;44.782;10.356;2023-03-23T05:35:50;19.40;;;10.95;;
39982;SDS011;25670;44.782;10.356;2023-03-23T05:38:23;25.02;;;11.10;;
39982;SDS011;25670;44.782;10.356;2023-03-23T05:40:50;16.90;;;10.65;;
39982;SDS011;25670;44.782;10.356;2023-03-23T05:43:23;14.85;;;10.27;;
39982;SDS011;25670;44.782;10.356;2023-03-23T05:46:16;19.38;;;10.20;;
39982;SDS011;25670;44.782;10.356;2023-03-23T05:48:44;18.40;;;8.55;;
39982;SDS011;25670;44.782;10.356;2023-03-23T05:51:15;15.17;;;8.20;;
39982;SDS011;25670;44.782;10.356;2023-03-23T05:53:43;14.48;;;8.52;;
39982;SDS011;25670;44.782;10.356;2023-03-23T05:56:12;11.27;;;7.25;;
39982;SDS011;25670;44.782;10.356;2023-03-23T05:59:05;9.63;;;8.48;;
39982;SDS011;25670;44.782;10.356;2023-03-23T06:01:34;14.65;;;9.15;;
39982;SDS011;25670;44.782;10.356;2023-03-23T06:04:01;13.88;;;7.95;;
39982;SDS011;25670;44.782;10.356;2023-03-23T06:06:37;13.10;;;6.85;;
39982;SDS011;25670;44.782;10.356;2023-03-23T06:09:09;9.17;;;7.40;;
39982;SDS011;25670;44.782;10.356;2023-03-23T06:11:58;11.40;;;7.53;;
39982;SDS011;25670;44.782;10.356;2023-03-23T06:14:48;9.82;;;6.88;;
39982;SDS011;25670;44.782;10.356;2023-03-23T06:17:19;8.32;;;6.22;;
39982;SDS011;25670;44.782;10.356;2023-03-23T06:19:50;11.23;;;7.45;;
39982;SDS011;25670;44.782;10.356;2023-03-23T06:22:17;8.65;;;7.25;;
39982;SDS011;25670;44.782;10.356;2023-03-23T06:25:13;12.30;;;6.30;;
39982;SDS011;25670;44.782;10.356;2023-03-23T06:27:42;9.60;;;6.72;;
39982;SDS011;25670;44.782;10.356;2023-03-23T06:30:12;10.15;;;7.28;;
39982;SDS011;25670;44.782;10.356;2023-03-23T06:32:41;12.68;;;6.85;;
39982;SDS011;25670;44.782;10.356;2023-03-23T06:35:10;11.73;;;6.38;;
39982;SDS011;25670;44.782;10.356;2023-03-23T06:37:49;8.75;;;6.80;;
39982;SDS011;25670;44.782;10.356;2023-03-23T06:40:23;12.15;;;6.43;;
39982;SDS011;25670;44.782;10.356;2023-03-23T06:42:56;14.43;;;8.03;;
39982;SDS011;25670;44.782;10.356;2023-03-23T06:45:24;9.90;;;7.40;;
39982;SDS011;25670;44.782;10.356;2023-03-23T06:48:05;12.65;;;7.90;;
39982;SDS011;25670;44.782;10.356;2023-03-23T06:50:33;15.68;;;8.27;;
39982;SDS011;25670;44.782;10.356;2023-03-23T06:53:01;15.73;;;6.65;;
39982;SDS011;25670;44.782;10.356;2023-03-23T06:55:27;12.52;;;7.50;;
39982;SDS011;25670;44.782;10.356;2023-03-23T06:57:54;18.40;;;7.63;;
39982;SDS011;25670;44.782;10.356;2023-03-23T07:00:20;12.65;;;7.82;;
39982;SDS011;25670;44.782;10.356;2023-03-23T07:02:47;9.98;;;7.20;;
39982;SDS011;25670;44.782;10.356;2023-03-23T07:05:13;19.42;;;8.05;;
39982;SDS011;25670;44.782;10.356;2023-03-23T07:07:40;18.20;;;8.15;;
39982;SDS011;25670;44.782;10.356;2023-03-23T07:10:25;18.23;;;8.27;;
39982;SDS011;25670;44.782;10.356;2023-03-23T07:12:51;22.13;;;7.72;;
39982;SDS011;25670;44.782;10.356;2023-03-23T07:15:18;8.75;;;7.05;;
39982;SDS011;25670;44.782;10.356;2023-03-23T07:17:49;13.32;;;7.63;;
39982;SDS011;25670;44.782;10.356;2023-03-23T07:20:33;7.95;;;6.78;;
39982;SDS011;25670;44.782;10.356;2023-03-23T07:23:00;15.25;;;7.40;;
39982;SDS011;25670;44.782;10.356;2023-03-23T07:25:39;12.43;;;7.35;;
39982;SDS011;25670;44.782;10.356;2023-03-23T07:28:08;7.47;;;6.75;;
39982;SDS011;25670;44.782;10.356;2023-03-23T07:30:34;9.65;;;6.65;;
39982;SDS011;25670;44.782;10.356;2023-03-23T07:33:03;10.57;;;6.80;;
39982;SDS011;25670;44.782;10.356;2023-03-23T07:35:31;10.38;;;6.55;;
39982;SDS011;25670;44.782;10.356;2023-03-23T07:38:02;7.93;;;6.90;;
39982;SDS011;25670;44.782;10.356;2023-03-23T07:40:30;9.23;;;6.65;;
39982;SDS011;25670;44.782;10.356;2023-03-23T07:43:04;7.18;;;6.47;;
39982;SDS011;25670;44.782;10.356;2023-03-23T07:45:52;12.50;;;7.95;;
39982;SDS011;25670;44.782;10.356;2023-03-23T07:48:21;11.02;;;7.35;;
39982;SDS011;25670;44.782;10.356;2023-03-23T07:50:48;12.30;;;7.38;;
39982;SDS011;25670;44.782;10.356;2023-03-23T07:53:15;11.93;;;6.93;;
39982;SDS011;25670;44.782;10.356;2023-03-23T07:55:46;13.27;;;7.30;;
39982;SDS011;25670;44.782;10.356;2023-03-23T07:58:47;10.55;;;7.50;;
39982;SDS011;25670;44.782;10.356;2023-03-23T08:01:14;19.80;;;8.48;;
39982;SDS011;25670;44.782;10.356;2023-03-23T08:03:47;8.73;;;7.68;;
39982;SDS011;25670;44.782;10.356;2023-03-23T08:06:34;15.60;;;8.70;;
39982;SDS011;25670;44.782;10.356;2023-03-23T08:09:30;11.02;;;9.20;;
39982;SDS011;25670;44.782;10.356;2023-03-23T08:11:57;15.32;;;9.70;;
39982;SDS011;25670;44.782;10.356;2023-03-23T08:14:55;23.23;;;9.82;;
39982;SDS011;25670;44.782;10.356;2023-03-23T08:17:44;17.17;;;9.55;;
39982;SDS011;25670;44.782;10.356;2023-03-23T08:20:43;13.93;;;9.68;;
39982;SDS011;25670;44.782;10.356;2023-03-23T08:23:30;16.00;;;10.18;;
39982;SDS011;25670;44.782;10.356;2023-03-23T08:26:17;14.90;;;9.75;;
39982;SDS011;25670;44.782;10.356;2023-03-23T08:29:04;15.68;;;10.35;;
39982;SDS011;25670;44.782;10.356;2023-03-23T08:32:06;11.65;;;9.65;;
39982;SDS011;25670;44.782;10.356;2023-03-23T08:34:52;16.02;;;9.90;;
39982;SDS011;25670;44.782;10.356;2023-03-23T08:37:25;15.35;;;9.45;;
39982;SDS011;25670;44.782;10.356;2023-03-23T08:40:18;17.52;;;10.18;;
39982;SDS011;25670;44.782;10.356;2023-03-23T08:42:46;14.05;;;8.82;;
39982;SDS011;25670;44.782;10.356;2023-03-23T08:45:31;12.60;;;9.18;;
39982;SDS011;25670;44.782;10.356;2023-03-23T08:48:12;15.52;;;10.05;;
39982;SDS011;25670;44.782;10.356;2023-03-23T08:50:57;22.50;;;10.45;;
39982;SDS011;25670;44.782;10.356;2023-03-23T08:53:43;8.52;;;7.82;;
39982;SDS011;25670;44.782;10.356;2023-03-23T08:56:24;10.20;;;7.95;;
39982;SDS011;25670;44.782;10.356;2023-03-23T08:59:06;16.30;;;9.07;;
39982;SDS011;25670;44.782;10.356;2023-03-23T09:01:46;18.25;;;8.60;;
39982;SDS011;25670;44.782;10.356;2023-03-23T09:04:21;10.90;;;8.23;;
39982;SDS011;25670;44.782;10.356;2023-03-23T09:06:55;15.55;;;8.13;;
39982;SDS011;25670;44.782;10.356;2023-03-23T09:09:22;10.15;;;8.48;;
39982;SDS011;25670;44.782;10.356;2023-03-23T09:11:49;10.88;;;8.60;;
39982;SDS011;25670;44.782;10.356;2023-03-23T09:14:15;10.85;;;8.80;;
39982;SDS011;25670;44.782;10.356;2023-03-23T09:16:42;15.10;;;9.45;;
39982;SDS011;25670;44.782;10.356;2023-03-23T09:19:09;9.23;;;8.32;;
39982;SDS011;25670;44.782;10.356;2023-03-23T09:21:35;11.80;;;8.95;;
39982;SDS011;25670;44.782;10.356;2023-03-23T09:24:01;9.55;;;8.45;;
39982;SDS011;25670;44.782;10.356;2023-03-23T09:26:28;9.13;;;8.05;;
39982;SDS011;25670;44.782;10.356;2023-03-23T09:28:54;7.28;;;6.55;;
39982;SDS011;25670;44.782;10.356;2023-03-23T09:31:22;6.72;;;6.13;;
39982;SDS011;25670;44.782;10.356;2023-03-23T09:33:52;8.40;;;7.70;;
39982;SDS011;25670;44.782;10.356;2023-03-23T09:36:21;9.05;;;8.15;;
39982;SDS011;25670;44.782;10.356;2023-03-23T09:38:48;8.13;;;7.43;;
39982;SDS011;25670;44.782;10.356;2023-03-23T09:43:59;7.22;;;6.53;;
39982;SDS011;25670;44.782;10.356;2023-03-23T09:49:15;7.60;;;6.95;;
39982;SDS011;25670;44.782;10.356;2023-03-23T09:51:49;6.72;;;6.13;;
39982;SDS011;25670;44.782;10.356;2023-03-23T09:57:10;7.53;;;6.70;;
39982;SDS011;25670;44.782;10.356;2023-03-23T09:59:49;13.93;;;8.45;;
39982;SDS011;25670;44.782;10.356;2023-03-23T10:02:28;8.50;;;7.75;;
39982;SDS011;25670;44.782;10.356;2023-03-23T10:07:59;9.45;;;7.40;;
39982;SDS011;25670;44.782;10.356;2023-03-23T10:10:33;10.60;;;7.57;;
39982;SDS011;25670;44.782;10.356;2023-03-23T10:13:16;9.20;;;8.05;;
39982;SDS011;25670;44.782;10.356;2023-03-23T10:15:49;12.57;;;7.93;;
39982;SDS011;25670;44.782;10.356;2023-03-23T10:18:17;9.60;;;8.60;;
39982;SDS011;25670;44.782;10.356;2023-03-23T10:20:59;11.00;;;8.35;;
39982;SDS011;25670;44.782;10.356;2023-03-23T10:23:35;10.35;;;8.57;;
39982;SDS011;25670;44.782;10.356;2023-03-23T10:28:37;8.35;;;7.30;;
39982;SDS011;25670;44.782;10.356;2023-03-23T10:31:16;8.02;;;7.25;;
39982;SDS011;25670;44.782;10.356;2023-03-23T10:34:18;10.45;;;7.03;;
39982;SDS011;25670;44.782;10.356;2023-03-23T10:37:05;8.45;;;7.75;;
39982;SDS011;25670;44.782;10.356;2023-03-23T10:42:21;8.95;;;8.02;;
39982;SDS011;25670;44.782;10.356;2023-03-23T10:44:53;9.57;;;8.68;;
39982;SDS011;25670;44.782;10.356;2023-03-23T10:47:21;12.20;;;9.43;;
39982;SDS011;25670;44.782;10.356;2023-03-23T10:49:59;14.93;;;9.43;;
39982;SDS011;25670;44.782;10.356;2023-03-23T10:55:00;9.35;;;8.40;;
39982;SDS011;25670;44.782;10.356;2023-03-23T10:57:36;9.43;;;8.70;;
39982;SDS011;25670;44.782;10.356;2023-03-23T11:00:06;12.13;;;9.15;;
39982;SDS011;25670;44.782;10.356;2023-03-23T11:02:45;9.18;;;8.48;;
39982;SDS011;25670;44.782;10.356;2023-03-23T11:05:23;10.65;;;9.13;;
39982;SDS011;25670;44.782;10.356;2023-03-23T11:07:58;19.67;;;9.95;;
39982;SDS011;25670;44.782;10.356;2023-03-23T11:10:49;13.23;;;10.32;;
39982;SDS011;25670;44.782;10.356;2023-03-23T11:13:19;10.27;;;9.13;;
39982;SDS011;25670;44.782;10.356;2023-03-23T11:15:47;10.25;;;8.98;;
39982;SDS011;25670;44.782;10.356;2023-03-23T11:18:18;10.30;;;9.55;;
39982;SDS011;25670;44.782;10.356;2023-03-23T11:20:53;10.65;;;8.80;;
39982;SDS011;25670;44.782;10.356;2023-03-23T11:23:26;9.82;;;8.93;;
39982;SDS011;25670;44.782;10.356;2023-03-23T11:28:35;9.65;;;8.90;;
39982;SDS011;25670;44.782;10.356;2023-03-23T11:31:04;10.13;;;8.30;;
39982;SDS011;25670;44.782;10.356;2023-03-23T11:33:36;9.55;;;8.65;;
39982;SDS011;25670;44.782;10.356;2023-03-23T11:36:06;9.77;;;8.77;;
39982;SDS011;25670;44.782;10.356;2023-03-23T11:38:33;9.82;;;8.80;;
39982;SDS011;25670;44.782;10.356;2023-03-23T11:41:01;13.30;;;8.52;;
39982;SDS011;25670;44.782;10.356;2023-03-23T11:43:34;9.63;;;8.88;;
39982;SDS011;25670;44.782;10.356;2023-03-23T11:46:13;10.18;;;8.52;;
39982;SDS011;25670;44.782;10.356;2023-03-23T11:54:19;9.45;;;8.68;;
39982;SDS011;25670;44.782;10.356;2023-03-23T11:56:57;11.23;;;8.77;;
39982;SDS011;25670;44.782;10.356;2023-03-23T11:59:29;12.07;;;8.45;;
39982;SDS011;25670;44.782;10.356;2023-03-23T12:05:25;11.38;;;9.10;;
39982;SDS011;25670;44.782;10.356;2023-03-23T12:08:13;11.20;;;10.07;;
39982;SDS011;25670;44.782;10.356;2023-03-23T12:16:34;9.53;;;8.67;;
39982;SDS011;25670;44.782;10.356;2023-03-23T12:27:46;9.18;;;8.40;;
39982;SDS011;25670;44.782;10.356;2023-03-23T12:33:21;8.40;;;7.90;;
39982;SDS011;25670;44.782;10.356;2023-03-23T12:38:35;10.90;;;8.35;;
39982;SDS011;25670;44.782;10.356;2023-03-23T12:54:34;8.65;;;7.85;;
39982;SDS011;25670;44.782;10.356;2023-03-23T12:57:08;9.48;;;8.65;;
39982;SDS011;25670;44.782;10.356;2023-03-23T12:59:46;8.70;;;8.20;;
39982;SDS011;25670;44.782;10.356;2023-03-23T13:02:23;8.32;;;7.47;;
39982;SDS011;25670;44.782;10.356;2023-03-23T13:04:52;8.57;;;8.00;;
39982;SDS011;25670;44.782;10.356;2023-03-23T13:07:26;9.55;;;8.77;;
39982;SDS011;25670;44.782;10.356;2023-03-23T13:10:03;9.65;;;8.68;;
39982;SDS011;25670;44.782;10.356;2023-03-23T13:12:38;8.93;;;8.00;;
39982;SDS011;25670;44.782;10.356;2023-03-23T13:18:24;10.55;;;9.70;;
39982;SDS011;25670;44.782;10.356;2023-03-23T13:21:24;10.70;;;9.80;;
39982;SDS011;25670;44.782;10.356;2023-03-23T13:24:22;10.75;;;9.68;;
39982;SDS011;25670;44.782;10.356;2023-03-23T13:26:48;14.82;;;10.05;;
39982;SDS011;25670;44.782;10.356;2023-03-23T13:29:19;13.50;;;11.07;;
39982;SDS011;25670;44.782;10.356;2023-03-23T13:31:50;10.50;;;9.80;;
39982;SDS011;25670;44.782;10.356;2023-03-23T13:36:54;11.73;;;10.85;;
39982;SDS011;25670;44.782;10.356;2023-03-23T13:39:27;11.18;;;10.13;;
39982;SDS011;25670;44.782;10.356;2023-03-23T13:47:38;11.93;;;11.07;;
39982;SDS011;25670;44.782;10.356;2023-03-23T14:00:50;11.52;;;10.48;;
39982;SDS011;25670;44.782;10.356;2023-03-23T14:03:39;13.27;;;11.48;;
39982;SDS011;25670;44.782;10.356;2023-03-23T14:06:11;11.37;;;10.40;;
39982;SDS011;25670;44.782;10.356;2023-03-23T14:09:11;12.85;;;11.75;;
39982;SDS011;25670;44.782;10.356;2023-03-23T14:11:57;9.95;;;8.93;;
39982;SDS011;25670;44.782;10.356;2023-03-23T14:14:39;11.88;;;10.68;;
39982;SDS011;25670;44.782;10.356;2023-03-23T14:17:07;12.18;;;11.00;;
39982;SDS011;25670;44.782;10.356;2023-03-23T14:19:40;9.82;;;8.73;;
39982;SDS011;25670;44.782;10.356;2023-03-23T14:22:24;13.35;;;12.32;;
39982;SDS011;25670;44.782;10.356;2023-03-23T14:24:59;11.65;;;10.65;;
39982;SDS011;25670;44.782;10.356;2023-03-23T14:27:38;10.50;;;9.80;;
39982;SDS011;25670;44.782;10.356;2023-03-23T14:30:08;12.02;;;11.00;;
39982;SDS011;25670;44.782;10.356;2023-03-23T14:32:45;12.13;;;11.02;;
39982;SDS011;25670;44.782;10.356;2023-03-23T14:35:31;13.25;;;12.18;;
39982;SDS011;25670;44.782;10.356;2023-03-23T14:37:59;14.20;;;10.23;;
39982;SDS011;25670;44.782;10.356;2023-03-23T14:40:27;12.10;;;10.45;;
39982;SDS011;25670;44.782;10.356;2023-03-23T14:42:55;12.13;;;11.07;;
39982;SDS011;25670;44.782;10.356;2023-03-23T14:45:23;10.90;;;10.10;;
39982;SDS011;25670;44.782;10.356;2023-03-23T14:47:54;11.30;;;10.30;;
39982;SDS011;25670;44.782;10.356;2023-03-23T14:52:58;12.50;;;11.40;;
39982;SDS011;25670;44.782;10.356;2023-03-23T14:55:27;12.88;;;11.60;;
39982;SDS011;25670;44.782;10.356;2023-03-23T14:58:05;13.73;;;11.50;;
39982;SDS011;25670;44.782;10.356;2023-03-23T15:00:38;11.87;;;10.77;;
39982;SDS011;25670;44.782;10.356;2023-03-23T15:03:25;12.23;;;11.23;;
39982;SDS011;25670;44.782;10.356;2023-03-23T15:05:54;13.30;;;12.27;;
39982;SDS011;25670;44.782;10.356;2023-03-23T15:11:08;15.68;;;11.05;;
39982;SDS011;25670;44.782;10.356;2023-03-23T15:13:42;12.52;;;11.38;;
39982;SDS011;25670;44.782;10.356;2023-03-23T15:16:26;12.50;;;11.23;;
39982;SDS011;25670;44.782;10.356;2023-03-23T15:18:56;13.63;;;11.98;;
39982;SDS011;25670;44.782;10.356;2023-03-23T15:21:32;13.90;;;11.98;;
39982;SDS011;25670;44.782;10.356;2023-03-23T15:24:00;16.23;;;11.25;;
39982;SDS011;25670;44.782;10.356;2023-03-23T15:31:41;13.00;;;11.70;;
39982;SDS011;25670;44.782;10.356;2023-03-23T15:34:12;12.10;;;11.10;;
39982;SDS011;25670;44.782;10.356;2023-03-23T15:36:46;12.63;;;11.52;;
39982;SDS011;25670;44.782;10.356;2023-03-23T15:39:19;13.75;;;12.48;;
39982;SDS011;25670;44.782;10.356;2023-03-23T15:41:49;14.82;;;12.05;;
39982;SDS011;25670;44.782;10.356;2023-03-23T15:44:21;13.60;;;12.32;;
39982;SDS011;25670;44.782;10.356;2023-03-23T15:47:01;13.57;;;12.25;;
39982;SDS011;25670;44.782;10.356;2023-03-23T15:49:43;12.13;;;11.05;;
39982;SDS011;25670;44.782;10.356;2023-03-23T15:52:11;12.00;;;11.00;;
39982;SDS011;25670;44.782;10.356;2023-03-23T15:54:38;11.68;;;10.40;;
39982;SDS011;25670;44.782;10.356;2023-03-23T15:57:11;17.13;;;11.32;;
39982;SDS011;25670;44.782;10.356;2023-03-23T15:59:37;16.23;;;11.15;;
39982;SDS011;25670;44.782;10.356;2023-03-23T16:02:03;12.55;;;11.48;;
39982;SDS011;25670;44.782;10.356;2023-03-23T16:04:30;13.95;;;12.57;;
39982;SDS011;25670;44.782;10.356;2023-03-23T16:06:57;13.65;;;12.27;;
39982;SDS011;25670;44.782;10.356;2023-03-23T16:09:25;14.43;;;12.98;;
39982;SDS011;25670;44.782;10.356;2023-03-23T16:11:51;13.52;;;12.32;;
39982;SDS011;25670;44.782;10.356;2023-03-23T16:14:17;14.30;;;12.90;;
39982;SDS011;25670;44.782;10.356;2023-03-23T16:16:45;13.50;;;12.35;;
39982;SDS011;25670;44.782;10.356;2023-03-23T16:19:13;13.80;;;12.57;;
39982;SDS011;25670;44.782;10.356;2023-03-23T16:21:41;25.83;;;13.88;;
39982;SDS011;25670;44.782;10.356;2023-03-23T16:24:08;15.15;;;12.52;;
39982;SDS011;25670;44.782;10.356;2023-03-23T16:26:36;15.23;;;13.63;;
39982;SDS011;25670;44.782;10.356;2023-03-23T16:29:13;21.67;;;12.68;;
39982;SDS011;25670;44.782;10.356;2023-03-23T16:31:41;16.65;;;12.02;;
39982;SDS011;25670;44.782;10.356;2023-03-23T16:34:08;17.90;;;12.80;;
39982;SDS011;25670;44.782;10.356;2023-03-23T16:36:34;16.92;;;12.02;;
39982;SDS011;25670;44.782;10.356;2023-03-23T16:39:00;17.80;;;12.57;;
39982;SDS011;25670;44.782;10.356;2023-03-23T16:41:27;15.25;;;12.40;;
39982;SDS011;25670;44.782;10.356;2023-03-23T16:43:53;14.43;;;12.07;;
39982;SDS011;25670;44.782;10.356;2023-03-23T16:46:19;17.15;;;11.05;;
39982;SDS011;25670;44.782;10.356;2023-03-23T16:48:46;16.15;;;11.70;;
39982;SDS011;25670;44.782;10.356;2023-03-23T16:51:12;18.52;;;12.05;;
39982;SDS011;25670;44.782;10.356;2023-03-23T16:53:39;17.45;;;11.48;;
39982;SDS011;25670;44.782;10.356;2023-03-23T16:56:05;14.40;;;11.13;;
39982;SDS011;25670;44.782;10.356;2023-03-23T16:58:32;13.38;;;10.75;;
39982;SDS011;25670;44.782;10.356;2023-03-23T17:00:59;12.55;;;11.10;;
39982;SDS011;25670;44.782;10.356;2023-03-23T17:03:26;12.50;;;11.13;;